sensor_id;sensor_type;location;lat;lon;timestamp;pressure;altitude;pressure_sealevel;temperature;humidity
7441;BME280;29616;51.950;8.572;2022-08-21T00:01:44;100165.28;;;13.87;100.00
7441;BME280;29616;51.950;8.572;2022-08-21T00:04:13;100150.72;;;13.86;100.00
7441;BME280;29616;51.950;8.572;2022-08-21T00:06:48;100147.78;;;13.88;100.00
7441;BME280;29616;51.950;8.572;2022-08-21T00:09:17;100165.28;;;14.03;100.00
7441;BME280;29616;51.950;8.572;2022-08-21T00:11:45;100152.94;;;13.99;100.00
7441;BME280;29616;51.950;8.572;2022-08-21T00:14:15;100158.41;;;14.07;100.00
7441;BME280;29616;51.950;8.572;2022-08-21T00:16:43;100160.13;;;14.08;100.00
7441;BME280;29616;51.950;8.572;2022-08-21T00:19:12;100158.41;;;14.15;100.00
7441;BME280;29616;51.950;8.572;2022-08-21T00:21:40;100148.09;;;14.17;100.00
7441;BME280;29616;51.950;8.572;2022-08-21T00:24:10;100151.84;;;14.16;100.00
7441;BME280;29616;51.950;8.572;2022-08-21T00:26:38;100146.72;;;14.13;100.00
7441;BME280;29616;51.950;8.572;2022-08-21T00:29:07;100156.00;;;14.12;100.00
7441;BME280;29616;51.950;8.572;2022-08-21T00:31:36;100153.78;;;14.08;100.00
7441;BME280;29616;51.950;8.572;2022-08-21T00:34:05;100154.28;;;14.11;100.00
7441;BME280;29616;51.950;8.572;2022-08-21T00:36:33;100154.94;;;14.13;100.00
7441;BME280;29616;51.950;8.572;2022-08-21T00:39:02;100164.56;;;14.17;100.00
7441;BME280;29616;51.950;8.572;2022-08-21T00:41:31;100167.31;;;14.25;100.00
7441;BME280;29616;51.950;8.572;2022-08-21T00:44:05;100163.53;;;14.26;100.00
7441;BME280;29616;51.950;8.572;2022-08-21T00:46:33;100154.94;;;14.21;100.00
7441;BME280;29616;51.950;8.572;2022-08-21T00:49:03;100156.66;;;14.30;100.00
7441;BME280;29616;51.950;8.572;2022-08-21T00:51:35;100131.38;;;14.27;100.00
7441;BME280;29616;51.950;8.572;2022-08-21T00:54:05;100151.34;;;14.45;100.00
7441;BME280;29616;51.950;8.572;2022-08-21T00:56:44;100147.53;;;14.46;100.00
7441;BME280;29616;51.950;8.572;2022-08-21T00:59:14;100154.59;;;14.40;100.00
7441;BME280;29616;51.950;8.572;2022-08-21T01:01:43;100163.16;;;14.45;100.00
7441;BME280;29616;51.950;8.572;2022-08-21T01:04:12;100165.75;;;14.47;100.00
7441;BME280;29616;51.950;8.572;2022-08-21T01:06:43;100164.88;;;14.46;100.00
7441;BME280;29616;51.950;8.572;2022-08-21T01:09:11;100164.53;;;14.49;100.00
7441;BME280;29616;51.950;8.572;2022-08-21T01:11:39;100147.00;;;14.42;100.00
7441;BME280;29616;51.950;8.572;2022-08-21T01:14:08;100161.47;;;14.44;100.00
7441;BME280;29616;51.950;8.572;2022-08-21T01:16:39;100154.25;;;14.43;100.00
7441;BME280;29616;51.950;8.572;2022-08-21T01:19:08;100148.94;;;14.42;100.00
7441;BME280;29616;51.950;8.572;2022-08-21T01:21:39;100148.94;;;14.34;100.00
7441;BME280;29616;51.950;8.572;2022-08-21T01:24:10;100144.97;;;14.28;100.00
7441;BME280;29616;51.950;8.572;2022-08-21T01:26:39;100149.09;;;14.32;100.00
7441;BME280;29616;51.950;8.572;2022-08-21T01:29:11;100154.94;;;14.37;100.00
7441;BME280;29616;51.950;8.572;2022-08-21T01:31:41;100150.84;;;14.17;100.00
7441;BME280;29616;51.950;8.572;2022-08-21T01:34:09;100159.75;;;14.19;100.00
7441;BME280;29616;51.950;8.572;2022-08-21T01:36:39;100149.44;;;14.13;100.00
7441;BME280;29616;51.950;8.572;2022-08-21T01:39:07;100146.72;;;14.13;100.00
7441;BME280;29616;51.950;8.572;2022-08-21T01:41:36;100152.53;;;14.26;100.00
7441;BME280;29616;51.950;8.572;2022-08-21T01:44:04;100149.41;;;14.29;100.00
7441;BME280;29616;51.950;8.572;2022-08-21T01:46:32;100155.97;;;14.28;100.00
7441;BME280;29616;51.950;8.572;2022-08-21T01:49:00;100146.56;;;14.15;100.00
7441;BME280;29616;51.950;8.572;2022-08-21T01:51:28;100147.09;;;14.10;100.00
7441;BME280;29616;51.950;8.572;2022-08-21T01:53:58;100147.56;;;14.14;100.00
7441;BME280;29616;51.950;8.572;2022-08-21T01:56:26;100145.00;;;14.20;100.00
7441;BME280;29616;51.950;8.572;2022-08-21T01:58:54;100149.09;;;14.32;100.00
7441;BME280;29616;51.950;8.572;2022-08-21T02:01:22;100152.00;;;14.31;100.00
7441;BME280;29616;51.950;8.572;2022-08-21T02:03:51;100153.25;;;14.20;100.00
7441;BME280;29616;51.950;8.572;2022-08-21T02:06:19;100147.56;;;14.22;100.00
7441;BME280;29616;51.950;8.572;2022-08-21T02:08:47;100152.56;;;14.18;100.00
7441;BME280;29616;51.950;8.572;2022-08-21T02:11:18;100132.63;;;14.08;100.00
7441;BME280;29616;51.950;8.572;2022-08-21T02:13:46;100129.91;;;14.00;100.00
7441;BME280;29616;51.950;8.572;2022-08-21T02:16:14;100153.94;;;14.14;100.00
7441;BME280;29616;51.950;8.572;2022-08-21T02:18:45;100148.94;;;14.18;100.00
7441;BME280;29616;51.950;8.572;2022-08-21T02:21:13;100143.81;;;14.15;100.00
7441;BME280;29616;51.950;8.572;2022-08-21T02:23:42;100148.78;;;14.11;100.00
7441;BME280;29616;51.950;8.572;2022-08-21T02:26:10;100145.88;;;14.13;100.00
7441;BME280;29616;51.950;8.572;2022-08-21T02:28:40;100136.41;;;14.15;100.00
7441;BME280;29616;51.950;8.572;2022-08-21T02:31:09;100146.03;;;14.11;100.00
7441;BME280;29616;51.950;8.572;2022-08-21T02:33:37;100142.94;;;14.14;100.00
7441;BME280;29616;51.950;8.572;2022-08-21T02:36:06;100142.59;;;14.17;100.00
7441;BME280;29616;51.950;8.572;2022-08-21T02:38:36;100143.94;;;14.21;100.00
7441;BME280;29616;51.950;8.572;2022-08-21T02:41:06;100128.16;;;14.15;100.00
7441;BME280;29616;51.950;8.572;2022-08-21T02:43:34;100135.38;;;14.16;100.00
7441;BME280;29616;51.950;8.572;2022-08-21T02:46:05;100125.06;;;14.26;100.00
7441;BME280;29616;51.950;8.572;2022-08-21T02:48:34;100135.19;;;14.26;100.00
7441;BME280;29616;51.950;8.572;2022-08-21T02:51:03;100128.47;;;14.28;100.00
7441;BME280;29616;51.950;8.572;2022-08-21T02:53:31;100131.59;;;14.25;100.00
7441;BME280;29616;51.950;8.572;2022-08-21T02:56:03;100114.59;;;14.14;100.00
7441;BME280;29616;51.950;8.572;2022-08-21T02:58:34;100129.53;;;14.11;100.00
7441;BME280;29616;51.950;8.572;2022-08-21T03:01:05;100117.03;;;13.92;100.00
7441;BME280;29616;51.950;8.572;2022-08-21T03:03:37;100128.53;;;13.96;100.00
7441;BME280;29616;51.950;8.572;2022-08-21T03:06:07;100120.31;;;13.96;100.00
7441;BME280;29616;51.950;8.572;2022-08-21T03:08:36;100111.38;;;13.94;100.00
7441;BME280;29616;51.950;8.572;2022-08-21T03:11:05;100119.97;;;13.99;100.00
7441;BME280;29616;51.950;8.572;2022-08-21T03:13:36;100128.00;;;14.01;100.00
7441;BME280;29616;51.950;8.572;2022-08-21T03:16:07;100121.50;;;13.93;100.00
7441;BME280;29616;51.950;8.572;2022-08-21T03:18:37;100114.63;;;13.89;100.00
7441;BME280;29616;51.950;8.572;2022-08-21T03:21:06;100124.06;;;13.95;100.00
7441;BME280;29616;51.950;8.572;2022-08-21T03:23:34;100127.34;;;13.98;100.00
7441;BME280;29616;51.950;8.572;2022-08-21T03:26:03;100132.28;;;14.11;100.00
7441;BME280;29616;51.950;8.572;2022-08-21T03:28:31;100144.47;;;14.33;100.00
7441;BME280;29616;51.950;8.572;2022-08-21T03:30:59;100133.44;;;14.41;100.00
7441;BME280;29616;51.950;8.572;2022-08-21T03:33:28;100123.31;;;14.41;100.00
7441;BME280;29616;51.950;8.572;2022-08-21T03:36:02;100130.72;;;14.41;100.00
7441;BME280;29616;51.950;8.572;2022-08-21T03:38:31;100121.59;;;14.40;100.00
7441;BME280;29616;51.950;8.572;2022-08-21T03:41:01;100136.88;;;14.43;100.00
7441;BME280;29616;51.950;8.572;2022-08-21T03:43:29;100127.63;;;14.36;100.00
7441;BME280;29616;51.950;8.572;2022-08-21T03:45:58;100147.69;;;14.52;100.00
7441;BME280;29616;51.950;8.572;2022-08-21T03:48:29;100129.81;;;14.48;100.00
7441;BME280;29616;51.950;8.572;2022-08-21T03:50:57;100146.81;;;14.52;100.00
7441;BME280;29616;51.950;8.572;2022-08-21T03:53:25;100140.13;;;14.54;100.00
7441;BME280;29616;51.950;8.572;2022-08-21T03:55:53;100129.78;;;14.56;100.00
7441;BME280;29616;51.950;8.572;2022-08-21T03:58:25;100132.19;;;14.60;100.00
7441;BME280;29616;51.950;8.572;2022-08-21T04:00:54;100124.63;;;14.53;100.00
7441;BME280;29616;51.950;8.572;2022-08-21T04:03:24;100128.41;;;14.61;100.00
7441;BME280;29616;51.950;8.572;2022-08-21T04:05:54;100131.50;;;14.57;100.00
7441;BME280;29616;51.950;8.572;2022-08-21T04:08:22;100140.25;;;14.61;100.00
7441;BME280;29616;51.950;8.572;2022-08-21T04:10:51;100149.03;;;14.56;100.00
7441;BME280;29616;51.950;8.572;2022-08-21T04:13:20;100150.94;;;14.48;100.00
7441;BME280;29616;51.950;8.572;2022-08-21T04:15:48;100156.97;;;14.51;100.00
7441;BME280;29616;51.950;8.572;2022-08-21T04:18:16;100163.16;;;14.45;100.00
7441;BME280;29616;51.950;8.572;2022-08-21T04:20:46;100161.47;;;14.44;100.00
7441;BME280;29616;51.950;8.572;2022-08-21T04:23:17;100164.22;;;14.36;100.00
7441;BME280;29616;51.950;8.572;2022-08-21T04:25:50;100166.09;;;14.44;100.00
7441;BME280;29616;51.950;8.572;2022-08-21T04:28:19;100165.44;;;14.42;100.00
7441;BME280;29616;51.950;8.572;2022-08-21T04:30:49;100170.22;;;14.40;100.00
7441;BME280;29616;51.950;8.572;2022-08-21T04:33:18;100165.78;;;14.39;100.00
7441;BME280;29616;51.950;8.572;2022-08-21T04:35:47;100169.72;;;14.36;100.00
7441;BME280;29616;51.950;8.572;2022-08-21T04:38:15;100171.81;;;14.34;100.00
7441;BME280;29616;51.950;8.572;2022-08-21T04:40:45;100176.25;;;14.27;100.00
7441;BME280;29616;51.950;8.572;2022-08-21T04:43:13;100183.16;;;14.31;100.00
7441;BME280;29616;51.950;8.572;2022-08-21T04:45:42;100190.84;;;14.28;100.00
7441;BME280;29616;51.950;8.572;2022-08-21T04:48:12;100186.03;;;14.22;100.00
7441;BME280;29616;51.950;8.572;2022-08-21T04:50:43;100186.38;;;14.27;100.00
7441;BME280;29616;51.950;8.572;2022-08-21T04:53:18;100192.72;;;14.27;100.00
7441;BME280;29616;51.950;8.572;2022-08-21T04:55:47;100191.03;;;14.26;100.00
7441;BME280;29616;51.950;8.572;2022-08-21T04:58:17;100185.34;;;14.20;100.00
7441;BME280;29616;51.950;8.572;2022-08-21T05:00:46;100189.31;;;14.17;100.00
7441;BME280;29616;51.950;8.572;2022-08-21T05:03:15;100185.03;;;14.15;100.00
7441;BME280;29616;51.950;8.572;2022-08-21T05:05:44;100185.19;;;14.13;100.00
7441;BME280;29616;51.950;8.572;2022-08-21T05:08:14;100189.84;;;14.13;100.00
7441;BME280;29616;51.950;8.572;2022-08-21T05:10:43;100192.25;;;14.16;100.00
7441;BME280;29616;51.950;8.572;2022-08-21T05:13:13;100195.50;;;14.19;100.00
7441;BME280;29616;51.950;8.572;2022-08-21T05:15:41;100190.34;;;14.16;100.00
7441;BME280;29616;51.950;8.572;2022-08-21T05:18:09;100189.66;;;14.22;100.00
7441;BME280;29616;51.950;8.572;2022-08-21T05:20:38;100180.38;;;14.23;100.00
7441;BME280;29616;51.950;8.572;2022-08-21T05:23:07;100187.41;;;14.42;100.00
7441;BME280;29616;51.950;8.572;2022-08-21T05:25:36;100185.47;;;14.58;100.00
7441;BME280;29616;51.950;8.572;2022-08-21T05:28:04;100194.72;;;14.74;100.00
7441;BME280;29616;51.950;8.572;2022-08-21T05:30:35;100183.19;;;14.70;100.00
7441;BME280;29616;51.950;8.572;2022-08-21T05:33:04;100192.75;;;14.90;100.00
7441;BME280;29616;51.950;8.572;2022-08-21T05:35:34;100195.63;;;15.05;100.00
7441;BME280;29616;51.950;8.572;2022-08-21T05:38:02;100201.41;;;15.18;100.00
7441;BME280;29616;51.950;8.572;2022-08-21T05:40:31;100198.91;;;15.31;100.00
7441;BME280;29616;51.950;8.572;2022-08-21T05:42:59;100208.84;;;15.40;100.00
7441;BME280;29616;51.950;8.572;2022-08-21T05:45:30;100207.72;;;15.57;100.00
7441;BME280;29616;51.950;8.572;2022-08-21T05:48:11;100205.97;;;15.64;100.00
7441;BME280;29616;51.950;8.572;2022-08-21T05:50:40;100211.16;;;16.05;100.00
7441;BME280;29616;51.950;8.572;2022-08-21T05:53:09;100197.69;;;16.10;100.00
7441;BME280;29616;51.950;8.572;2022-08-21T05:55:38;100200.38;;;16.18;100.00
7441;BME280;29616;51.950;8.572;2022-08-21T05:58:11;100201.09;;;16.12;100.00
7441;BME280;29616;51.950;8.572;2022-08-21T06:00:39;100198.94;;;16.22;100.00
7441;BME280;29616;51.950;8.572;2022-08-21T06:03:12;100195.44;;;16.65;100.00
7441;BME280;29616;51.950;8.572;2022-08-21T06:05:40;100196.84;;;17.05;100.00
7441;BME280;29616;51.950;8.572;2022-08-21T06:08:08;100192.75;;;16.86;100.00
7441;BME280;29616;51.950;8.572;2022-08-21T06:10:36;100194.25;;;17.04;100.00
7441;BME280;29616;51.950;8.572;2022-08-21T06:13:04;100192.66;;;16.94;100.00
7441;BME280;29616;51.950;8.572;2022-08-21T06:15:32;100189.69;;;17.11;100.00
7441;BME280;29616;51.950;8.572;2022-08-21T06:18:01;100193.50;;;17.10;100.00
7441;BME280;29616;51.950;8.572;2022-08-21T06:20:31;100179.03;;;17.08;100.00
7441;BME280;29616;51.950;8.572;2022-08-21T06:22:59;100186.75;;;17.48;100.00
7441;BME280;29616;51.950;8.572;2022-08-21T06:25:27;100182.31;;;17.68;100.00
7441;BME280;29616;51.950;8.572;2022-08-21T06:28:00;100187.94;;;17.75;100.00
7441;BME280;29616;51.950;8.572;2022-08-21T06:30:29;100198.13;;;17.95;100.00
7441;BME280;29616;51.950;8.572;2022-08-21T06:32:57;100195.44;;;18.79;100.00
7441;BME280;29616;51.950;8.572;2022-08-21T06:35:26;100201.88;;;18.58;100.00
7441;BME280;29616;51.950;8.572;2022-08-21T06:37:57;100195.59;;;18.70;100.00
7441;BME280;29616;51.950;8.572;2022-08-21T06:40:26;100186.50;;;19.30;100.00
7441;BME280;29616;51.950;8.572;2022-08-21T06:42:56;100184.00;;;20.35;100.00
7441;BME280;29616;51.950;8.572;2022-08-21T06:45:25;100177.78;;;20.20;100.00
7441;BME280;29616;51.950;8.572;2022-08-21T06:47:58;100165.19;;;20.44;100.00
7441;BME280;29616;51.950;8.572;2022-08-21T06:50:26;100168.34;;;20.80;100.00
7441;BME280;29616;51.950;8.572;2022-08-21T06:53:04;100170.72;;;21.47;100.00
7441;BME280;29616;51.950;8.572;2022-08-21T06:55:33;100155.91;;;21.09;100.00
7441;BME280;29616;51.950;8.572;2022-08-21T06:58:03;100171.38;;;22.12;100.00
7441;BME280;29616;51.950;8.572;2022-08-21T07:00:31;100167.84;;;24.23;100.00
7441;BME280;29616;51.950;8.572;2022-08-21T07:03:00;100162.56;;;25.54;100.00
7441;BME280;29616;51.950;8.572;2022-08-21T07:05:29;100168.09;;;25.25;100.00
7441;BME280;29616;51.950;8.572;2022-08-21T07:07:57;100158.13;;;23.54;100.00
7441;BME280;29616;51.950;8.572;2022-08-21T07:10:27;100165.81;;;25.11;100.00
7441;BME280;29616;51.950;8.572;2022-08-21T07:12:55;100163.97;;;25.28;100.00
7441;BME280;29616;51.950;8.572;2022-08-21T07:15:27;100162.78;;;25.92;100.00
7441;BME280;29616;51.950;8.572;2022-08-21T07:17:57;100155.06;;;25.71;100.00
7441;BME280;29616;51.950;8.572;2022-08-21T07:20:26;100164.94;;;24.41;100.00
7441;BME280;29616;51.950;8.572;2022-08-21T07:22:54;100166.03;;;25.21;100.00
7441;BME280;29616;51.950;8.572;2022-08-21T07:25:23;100169.94;;;24.62;100.00
7441;BME280;29616;51.950;8.572;2022-08-21T07:27:53;100163.66;;;24.90;100.00
7441;BME280;29616;51.950;8.572;2022-08-21T07:30:21;100152.09;;;24.86;100.00
7441;BME280;29616;51.950;8.572;2022-08-21T07:32:50;100159.63;;;24.51;100.00
7441;BME280;29616;51.950;8.572;2022-08-21T07:35:19;100148.53;;;25.65;100.00
7441;BME280;29616;51.950;8.572;2022-08-21T07:37:47;100154.06;;;26.05;100.00
7441;BME280;29616;51.950;8.572;2022-08-21T07:40:16;100154.75;;;24.58;100.00
7441;BME280;29616;51.950;8.572;2022-08-21T07:42:46;100157.53;;;25.27;100.00
7441;BME280;29616;51.950;8.572;2022-08-21T07:45:19;100147.78;;;25.70;100.00
7441;BME280;29616;51.950;8.572;2022-08-21T07:47:50;100154.38;;;25.64;100.00
7441;BME280;29616;51.950;8.572;2022-08-21T07:50:23;100150.19;;;25.38;100.00
7441;BME280;29616;51.950;8.572;2022-08-21T07:52:52;100157.91;;;25.87;100.00
7441;BME280;29616;51.950;8.572;2022-08-21T07:55:21;100162.69;;;26.04;100.00
7441;BME280;29616;51.950;8.572;2022-08-21T07:57:49;100155.88;;;25.43;100.00
7441;BME280;29616;51.950;8.572;2022-08-21T08:00:21;100151.91;;;25.27;100.00
7441;BME280;29616;51.950;8.572;2022-08-21T08:02:51;100156.38;;;25.52;100.00
7441;BME280;29616;51.950;8.572;2022-08-21T08:05:23;100147.13;;;24.88;100.00
7441;BME280;29616;51.950;8.572;2022-08-21T08:07:51;100149.81;;;25.74;100.00
7441;BME280;29616;51.950;8.572;2022-08-21T08:10:20;100160.16;;;26.64;100.00
7441;BME280;29616;51.950;8.572;2022-08-21T08:12:49;100143.78;;;25.66;100.00
7441;BME280;29616;51.950;8.572;2022-08-21T08:15:21;100165.84;;;26.07;100.00
7441;BME280;29616;51.950;8.572;2022-08-21T08:17:49;100159.88;;;26.15;100.00
7441;BME280;29616;51.950;8.572;2022-08-21T08:20:18;100157.84;;;26.27;100.00
7441;BME280;29616;51.950;8.572;2022-08-21T08:22:47;100165.31;;;26.55;100.00
7441;BME280;29616;51.950;8.572;2022-08-21T08:25:16;100153.06;;;26.94;100.00
7441;BME280;29616;51.950;8.572;2022-08-21T08:27:45;100155.66;;;26.29;100.00
7441;BME280;29616;51.950;8.572;2022-08-21T08:30:14;100150.13;;;26.34;100.00
7441;BME280;29616;51.950;8.572;2022-08-21T08:32:44;100153.53;;;26.36;100.00
7441;BME280;29616;51.950;8.572;2022-08-21T08:35:13;100151.50;;;26.32;100.00
7441;BME280;29616;51.950;8.572;2022-08-21T08:37:42;100135.38;;;26.94;100.00
7441;BME280;29616;51.950;8.572;2022-08-21T08:40:22;100138.47;;;27.57;100.00
7441;BME280;29616;51.950;8.572;2022-08-21T08:42:53;100132.13;;;27.40;100.00
7441;BME280;29616;51.950;8.572;2022-08-21T08:45:21;100130.50;;;27.71;100.00
7441;BME280;29616;51.950;8.572;2022-08-21T08:47:53;100135.84;;;27.46;100.00
7441;BME280;29616;51.950;8.572;2022-08-21T08:50:28;100134.38;;;27.92;100.00
7441;BME280;29616;51.950;8.572;2022-08-21T08:53:00;100138.09;;;27.27;100.00
7441;BME280;29616;51.950;8.572;2022-08-21T08:55:34;100147.75;;;26.26;100.00
7441;BME280;29616;51.950;8.572;2022-08-21T08:58:03;100136.44;;;26.55;100.00
7441;BME280;29616;51.950;8.572;2022-08-21T09:00:32;100128.81;;;26.33;100.00
7441;BME280;29616;51.950;8.572;2022-08-21T09:03:02;100130.50;;;26.51;100.00
7441;BME280;29616;51.950;8.572;2022-08-21T09:05:38;100129.06;;;26.82;100.00
7441;BME280;29616;51.950;8.572;2022-08-21T09:08:26;100119.69;;;26.60;100.00
7441;BME280;29616;51.950;8.572;2022-08-21T09:11:01;100124.94;;;26.73;100.00
7441;BME280;29616;51.950;8.572;2022-08-21T09:13:36;100108.94;;;27.06;100.00
7441;BME280;29616;51.950;8.572;2022-08-21T09:16:12;100122.41;;;27.31;100.00
7441;BME280;29616;51.950;8.572;2022-08-21T09:18:47;100118.75;;;27.31;97.72
7441;BME280;29616;51.950;8.572;2022-08-21T09:21:23;100131.00;;;26.81;100.00
7441;BME280;29616;51.950;8.572;2022-08-21T09:23:59;100116.75;;;27.70;98.58
7441;BME280;29616;51.950;8.572;2022-08-21T09:26:30;100126.50;;;26.64;96.42
7441;BME280;29616;51.950;8.572;2022-08-21T09:29:01;100115.16;;;26.92;95.29
7441;BME280;29616;51.950;8.572;2022-08-21T09:31:32;100119.31;;;27.49;90.86
7441;BME280;29616;51.950;8.572;2022-08-21T09:34:04;100118.41;;;27.71;92.92
7441;BME280;29616;51.950;8.572;2022-08-21T09:36:39;100125.38;;;27.41;93.21
7441;BME280;29616;51.950;8.572;2022-08-21T09:39:09;100119.28;;;26.84;92.81
7441;BME280;29616;51.950;8.572;2022-08-21T09:41:38;100117.31;;;26.85;97.48
7441;BME280;29616;51.950;8.572;2022-08-21T09:44:08;100106.78;;;27.35;92.98
7441;BME280;29616;51.950;8.572;2022-08-21T09:46:36;100107.78;;;27.73;90.45
7441;BME280;29616;51.950;8.572;2022-08-21T09:49:05;100118.84;;;28.43;84.44
7441;BME280;29616;51.950;8.572;2022-08-21T09:51:50;100097.59;;;27.93;81.88
7441;BME280;29616;51.950;8.572;2022-08-21T09:54:19;100105.66;;;27.36;85.92
7441;BME280;29616;51.950;8.572;2022-08-21T09:56:55;100102.25;;;26.91;86.11
7441;BME280;29616;51.950;8.572;2022-08-21T09:59:42;100078.84;;;27.02;83.05
7441;BME280;29616;51.950;8.572;2022-08-21T10:02:30;100097.09;;;27.26;85.46
7441;BME280;29616;51.950;8.572;2022-08-21T10:05:02;100094.31;;;28.01;81.36
7441;BME280;29616;51.950;8.572;2022-08-21T10:07:31;100083.28;;;27.41;85.42
7441;BME280;29616;51.950;8.572;2022-08-21T10:10:02;100072.66;;;27.97;88.56
7441;BME280;29616;51.950;8.572;2022-08-21T10:12:37;100079.41;;;28.27;82.07
7441;BME280;29616;51.950;8.572;2022-08-21T10:15:13;100085.03;;;28.27;77.91
7441;BME280;29616;51.950;8.572;2022-08-21T10:17:47;100068.63;;;28.56;81.00
7441;BME280;29616;51.950;8.572;2022-08-21T10:20:22;100078.00;;;27.98;85.58
7441;BME280;29616;51.950;8.572;2022-08-21T10:22:57;100091.41;;;27.91;84.92
7441;BME280;29616;51.950;8.572;2022-08-21T10:25:33;100077.03;;;28.51;78.67
7441;BME280;29616;51.950;8.572;2022-08-21T10:28:06;100076.47;;;28.91;78.37
7441;BME280;29616;51.950;8.572;2022-08-21T10:30:44;100079.44;;;26.82;92.09
7441;BME280;29616;51.950;8.572;2022-08-21T10:33:21;100077.88;;;27.56;93.69
7441;BME280;29616;51.950;8.572;2022-08-21T10:35:56;100074.16;;;28.41;83.01
7441;BME280;29616;51.950;8.572;2022-08-21T10:38:38;100071.97;;;27.85;84.69
7441;BME280;29616;51.950;8.572;2022-08-21T10:41:49;100083.41;;;26.31;95.37
7441;BME280;29616;51.950;8.572;2022-08-21T10:44:28;100068.88;;;27.33;89.50
7441;BME280;29616;51.950;8.572;2022-08-21T10:47:01;100071.44;;;27.61;89.21
7441;BME280;29616;51.950;8.572;2022-08-21T10:49:37;100061.13;;;28.25;84.27
7441;BME280;29616;51.950;8.572;2022-08-21T10:52:22;100063.84;;;28.52;80.50
7441;BME280;29616;51.950;8.572;2022-08-21T10:54:57;100072.06;;;29.05;75.02
7441;BME280;29616;51.950;8.572;2022-08-21T10:57:33;100065.50;;;28.84;76.16
7441;BME280;29616;51.950;8.572;2022-08-21T11:00:08;100072.16;;;29.30;72.00
7441;BME280;29616;51.950;8.572;2022-08-21T11:02:40;100056.03;;;29.06;72.63
7441;BME280;29616;51.950;8.572;2022-08-21T11:05:12;100060.53;;;29.99;71.24
7441;BME280;29616;51.950;8.572;2022-08-21T11:07:47;100056.88;;;30.03;67.13
7441;BME280;29616;51.950;8.572;2022-08-21T11:10:21;100050.78;;;28.72;69.48
7441;BME280;29616;51.950;8.572;2022-08-21T11:12:54;100047.78;;;29.61;71.08
7441;BME280;29616;51.950;8.572;2022-08-21T11:15:31;100056.91;;;30.39;62.29
7441;BME280;29616;51.950;8.572;2022-08-21T11:18:10;100057.75;;;29.17;66.95
7441;BME280;29616;51.950;8.572;2022-08-21T11:20:43;100063.81;;;28.94;77.62
7441;BME280;29616;51.950;8.572;2022-08-21T11:23:18;100056.31;;;29.96;62.78
7441;BME280;29616;51.950;8.572;2022-08-21T11:25:52;100059.94;;;30.73;61.19
7441;BME280;29616;51.950;8.572;2022-08-21T11:28:24;100058.00;;;30.63;60.93
7441;BME280;29616;51.950;8.572;2022-08-21T11:30:59;100053.41;;;29.56;64.93
7441;BME280;29616;51.950;8.572;2022-08-21T11:33:37;100049.75;;;28.89;68.19
7441;BME280;29616;51.950;8.572;2022-08-21T11:36:15;100054.28;;;28.95;70.33
7441;BME280;29616;51.950;8.572;2022-08-21T11:38:50;100050.63;;;28.99;72.30
7441;BME280;29616;51.950;8.572;2022-08-21T11:41:25;100034.88;;;30.06;66.69
7441;BME280;29616;51.950;8.572;2022-08-21T11:44:02;100062.78;;;30.22;61.51
7441;BME280;29616;51.950;8.572;2022-08-21T11:46:39;100054.81;;;29.59;59.88
7441;BME280;29616;51.950;8.572;2022-08-21T11:49:23;100048.94;;;29.75;62.61
7441;BME280;29616;51.950;8.572;2022-08-21T11:52:02;100051.81;;;30.26;60.34
7441;BME280;29616;51.950;8.572;2022-08-21T11:54:38;100049.53;;;30.33;62.73
7441;BME280;29616;51.950;8.572;2022-08-21T11:57:14;100046.94;;;30.82;56.95
7441;BME280;29616;51.950;8.572;2022-08-21T11:59:49;100065.84;;;30.81;62.89
7441;BME280;29616;51.950;8.572;2022-08-21T12:02:22;100043.53;;;31.54;54.41
7441;BME280;29616;51.950;8.572;2022-08-21T12:04:56;100047.16;;;31.59;49.73
7441;BME280;29616;51.950;8.572;2022-08-21T12:07:37;100062.75;;;30.73;52.76
7441;BME280;29616;51.950;8.572;2022-08-21T12:10:11;100051.78;;;30.56;54.56
7441;BME280;29616;51.950;8.572;2022-08-21T12:12:42;100039.13;;;30.03;56.89
7441;BME280;29616;51.950;8.572;2022-08-21T12:15:26;100044.97;;;30.77;57.52
7441;BME280;29616;51.950;8.572;2022-08-21T12:17:59;100052.59;;;30.67;56.24
7441;BME280;29616;51.950;8.572;2022-08-21T12:20:59;100046.38;;;29.59;57.27
7441;BME280;29616;51.950;8.572;2022-08-21T12:23:31;100043.91;;;29.87;57.50
7441;BME280;29616;51.950;8.572;2022-08-21T12:26:13;100047.78;;;29.51;62.51
7441;BME280;29616;51.950;8.572;2022-08-21T12:28:44;100037.63;;;29.50;64.25
7441;BME280;29616;51.950;8.572;2022-08-21T12:31:23;100030.63;;;28.07;70.07
7441;BME280;29616;51.950;8.572;2022-08-21T12:33:56;100043.56;;;28.08;74.64
7441;BME280;29616;51.950;8.572;2022-08-21T12:36:29;100037.56;;;27.99;72.80
7441;BME280;29616;51.950;8.572;2022-08-21T12:39:08;100039.34;;;27.52;82.56
7441;BME280;29616;51.950;8.572;2022-08-21T12:41:44;100037.63;;;28.41;71.06
7441;BME280;29616;51.950;8.572;2022-08-21T12:44:14;100035.38;;;28.38;73.83
7441;BME280;29616;51.950;8.572;2022-08-21T12:46:46;100031.22;;;29.90;64.55
7441;BME280;29616;51.950;8.572;2022-08-21T12:49:18;100042.16;;;30.67;57.48
7441;BME280;29616;51.950;8.572;2022-08-21T12:51:55;100029.69;;;29.32;59.48
7441;BME280;29616;51.950;8.572;2022-08-21T12:54:27;100037.09;;;28.44;66.27
7441;BME280;29616;51.950;8.572;2022-08-21T12:56:59;100033.66;;;28.37;65.11
7441;BME280;29616;51.950;8.572;2022-08-21T12:59:28;100021.59;;;29.66;60.49
7441;BME280;29616;51.950;8.572;2022-08-21T13:01:57;100019.78;;;31.01;56.66
7441;BME280;29616;51.950;8.572;2022-08-21T13:04:32;100024.34;;;30.77;52.85
7441;BME280;29616;51.950;8.572;2022-08-21T13:07:05;100033.75;;;29.86;53.41
7441;BME280;29616;51.950;8.572;2022-08-21T13:09:41;100025.25;;;29.46;56.01
7441;BME280;29616;51.950;8.572;2022-08-21T13:12:13;100015.09;;;30.66;50.82
7441;BME280;29616;51.950;8.572;2022-08-21T13:14:44;100024.13;;;30.68;49.38